sensor_id;sensor_type;location;lat;lon;timestamp;temperature;humidity
18412;DHT22;27097;51.738;19.472;2023-04-25T00:01:08;22.90;73.70
18412;DHT22;27097;51.738;19.472;2023-04-25T00:03:41;22.90;73.50
18412;DHT22;27097;51.738;19.472;2023-04-25T00:06:08;22.80;73.20
18412;DHT22;27097;51.738;19.472;2023-04-25T00:08:41;22.80;72.80
18412;DHT22;27097;51.738;19.472;2023-04-25T00:11:08;22.80;72.70
18412;DHT22;27097;51.738;19.472;2023-04-25T00:13:35;22.80;72.40
18412;DHT22;27097;51.738;19.472;2023-04-25T00:16:02;22.80;73.00
18412;DHT22;27097;51.738;19.472;2023-04-25T00:18:31;22.80;74.00
18412;DHT22;27097;51.738;19.472;2023-04-25T00:20:58;22.80;74.30
18412;DHT22;27097;51.738;19.472;2023-04-25T00:23:25;22.80;79.60
18412;DHT22;27097;51.738;19.472;2023-04-25T00:25:52;22.80;83.30
18412;DHT22;27097;51.738;19.472;2023-04-25T00:28:19;22.80;85.40
18412;DHT22;27097;51.738;19.472;2023-04-25T00:30:46;22.90;86.90
18412;DHT22;27097;51.738;19.472;2023-04-25T00:33:13;22.90;87.20
18412;DHT22;27097;51.738;19.472;2023-04-25T00:35:42;22.90;87.40
18412;DHT22;27097;51.738;19.472;2023-04-25T00:38:09;22.90;87.60
18412;DHT22;27097;51.738;19.472;2023-04-25T00:40:35;22.90;87.40
18412;DHT22;27097;51.738;19.472;2023-04-25T00:43:02;22.90;87.70
18412;DHT22;27097;51.738;19.472;2023-04-25T00:45:29;22.90;87.80
18412;DHT22;27097;51.738;19.472;2023-04-25T00:47:56;22.90;87.90
18412;DHT22;27097;51.738;19.472;2023-04-25T00:50:23;22.90;88.00
18412;DHT22;27097;51.738;19.472;2023-04-25T00:52:52;22.90;88.20
18412;DHT22;27097;51.738;19.472;2023-04-25T00:55:19;22.90;87.90
18412;DHT22;27097;51.738;19.472;2023-04-25T00:57:46;22.90;88.10
18412;DHT22;27097;51.738;19.472;2023-04-25T01:00:13;22.90;88.00
18412;DHT22;27097;51.738;19.472;2023-04-25T01:02:41;22.90;88.30
18412;DHT22;27097;51.738;19.472;2023-04-25T01:05:08;22.90;88.70
18412;DHT22;27097;51.738;19.472;2023-04-25T01:07:35;22.90;88.50
18412;DHT22;27097;51.738;19.472;2023-04-25T01:10:05;23.00;88.70
18412;DHT22;27097;51.738;19.472;2023-04-25T01:12:33;23.00;88.40
18412;DHT22;27097;51.738;19.472;2023-04-25T01:14:59;23.00;88.50
18412;DHT22;27097;51.738;19.472;2023-04-25T01:17:26;22.90;88.50
18412;DHT22;27097;51.738;19.472;2023-04-25T01:19:54;23.00;88.70
18412;DHT22;27097;51.738;19.472;2023-04-25T01:22:23;22.90;88.60
18412;DHT22;27097;51.738;19.472;2023-04-25T01:24:50;23.00;88.80
18412;DHT22;27097;51.738;19.472;2023-04-25T01:27:17;23.00;88.80
18412;DHT22;27097;51.738;19.472;2023-04-25T01:29:44;22.90;88.80
18412;DHT22;27097;51.738;19.472;2023-04-25T01:32:12;23.00;88.80
18412;DHT22;27097;51.738;19.472;2023-04-25T01:34:40;23.00;88.90
18412;DHT22;27097;51.738;19.472;2023-04-25T01:37:07;23.00;88.90
18412;DHT22;27097;51.738;19.472;2023-04-25T01:39:35;23.00;88.90
18412;DHT22;27097;51.738;19.472;2023-04-25T01:42:02;22.90;89.00
18412;DHT22;27097;51.738;19.472;2023-04-25T01:44:29;23.00;88.70
18412;DHT22;27097;51.738;19.472;2023-04-25T01:46:56;23.00;88.70
18412;DHT22;27097;51.738;19.472;2023-04-25T01:49:23;23.00;88.80
18412;DHT22;27097;51.738;19.472;2023-04-25T01:51:50;23.00;88.80
18412;DHT22;27097;51.738;19.472;2023-04-25T01:54:17;23.00;89.00
18412;DHT22;27097;51.738;19.472;2023-04-25T01:56:50;23.00;89.20
18412;DHT22;27097;51.738;19.472;2023-04-25T01:59:17;22.90;88.90
18412;DHT22;27097;51.738;19.472;2023-04-25T02:01:45;22.90;88.80
18412;DHT22;27097;51.738;19.472;2023-04-25T02:04:12;23.00;88.70
18412;DHT22;27097;51.738;19.472;2023-04-25T02:06:38;23.00;88.90
18412;DHT22;27097;51.738;19.472;2023-04-25T02:09:05;23.00;88.90
18412;DHT22;27097;51.738;19.472;2023-04-25T02:11:32;23.00;89.00
18412;DHT22;27097;51.738;19.472;2023-04-25T02:14:00;23.00;89.00
18412;DHT22;27097;51.738;19.472;2023-04-25T02:16:27;23.00;89.00
18412;DHT22;27097;51.738;19.472;2023-04-25T02:18:56;22.90;88.90
18412;DHT22;27097;51.738;19.472;2023-04-25T02:21:22;23.00;89.00
18412;DHT22;27097;51.738;19.472;2023-04-25T02:23:49;23.00;89.20
18412;DHT22;27097;51.738;19.472;2023-04-25T02:26:21;23.00;89.10
18412;DHT22;27097;51.738;19.472;2023-04-25T02:28:51;22.90;88.80
18412;DHT22;27097;51.738;19.472;2023-04-25T02:31:19;23.00;89.30
18412;DHT22;27097;51.738;19.472;2023-04-25T02:33:47;22.90;88.80
18412;DHT22;27097;51.738;19.472;2023-04-25T02:36:32;22.90;89.20
18412;DHT22;27097;51.738;19.472;2023-04-25T02:39:01;22.90;89.40
18412;DHT22;27097;51.738;19.472;2023-04-25T02:41:28;23.00;88.80
18412;DHT22;27097;51.738;19.472;2023-04-25T02:43:55;22.90;89.00
18412;DHT22;27097;51.738;19.472;2023-04-25T02:46:23;22.90;88.90
18412;DHT22;27097;51.738;19.472;2023-04-25T02:48:50;22.90;88.90
18412;DHT22;27097;51.738;19.472;2023-04-25T02:51:17;23.00;88.80
18412;DHT22;27097;51.738;19.472;2023-04-25T02:53:44;22.90;88.70
18412;DHT22;27097;51.738;19.472;2023-04-25T02:56:11;22.90;89.30
18412;DHT22;27097;51.738;19.472;2023-04-25T02:58:38;22.90;89.30
18412;DHT22;27097;51.738;19.472;2023-04-25T03:01:05;22.90;89.20
18412;DHT22;27097;51.738;19.472;2023-04-25T03:03:33;22.90;88.90
18412;DHT22;27097;51.738;19.472;2023-04-25T03:06:00;22.90;88.70
18412;DHT22;27097;51.738;19.472;2023-04-25T03:08:27;22.90;89.30
18412;DHT22;27097;51.738;19.472;2023-04-25T03:10:57;22.90;89.30
18412;DHT22;27097;51.738;19.472;2023-04-25T03:13:24;22.90;89.40
18412;DHT22;27097;51.738;19.472;2023-04-25T03:15:53;22.90;89.30
18412;DHT22;27097;51.738;19.472;2023-04-25T03:18:19;22.90;88.80
18412;DHT22;27097;51.738;19.472;2023-04-25T03:20:55;22.90;88.80
18412;DHT22;27097;51.738;19.472;2023-04-25T03:23:22;22.90;89.40
18412;DHT22;27097;51.738;19.472;2023-04-25T03:25:52;22.90;89.60
18412;DHT22;27097;51.738;19.472;2023-04-25T03:28:19;22.90;89.30
18412;DHT22;27097;51.738;19.472;2023-04-25T03:30:46;22.90;89.10
18412;DHT22;27097;51.738;19.472;2023-04-25T03:33:13;22.90;89.50
18412;DHT22;27097;51.738;19.472;2023-04-25T03:35:40;22.90;89.40
18412;DHT22;27097;51.738;19.472;2023-04-25T03:38:09;22.90;89.50
18412;DHT22;27097;51.738;19.472;2023-04-25T03:40:36;22.90;88.90
18412;DHT22;27097;51.738;19.472;2023-04-25T03:43:03;22.90;89.70
18412;DHT22;27097;51.738;19.472;2023-04-25T03:45:29;22.90;89.40
18412;DHT22;27097;51.738;19.472;2023-04-25T03:47:56;22.90;89.30
18412;DHT22;27097;51.738;19.472;2023-04-25T03:50:23;22.90;88.80
18412;DHT22;27097;51.738;19.472;2023-04-25T03:52:50;22.90;89.30
18412;DHT22;27097;51.738;19.472;2023-04-25T03:55:19;22.90;89.40
18412;DHT22;27097;51.738;19.472;2023-04-25T03:57:46;22.90;89.20
18412;DHT22;27097;51.738;19.472;2023-04-25T04:00:14;22.90;88.70
18412;DHT22;27097;51.738;19.472;2023-04-25T04:02:41;22.90;89.20
18412;DHT22;27097;51.738;19.472;2023-04-25T04:05:08;22.90;89.80
18412;DHT22;27097;51.738;19.472;2023-04-25T04:07:35;22.90;89.40
18412;DHT22;27097;51.738;19.472;2023-04-25T04:10:06;22.90;89.20
18412;DHT22;27097;51.738;19.472;2023-04-25T04:12:34;22.90;89.80
18412;DHT22;27097;51.738;19.472;2023-04-25T04:15:01;22.90;89.60
18412;DHT22;27097;51.738;19.472;2023-04-25T04:17:29;22.90;89.40
18412;DHT22;27097;51.738;19.472;2023-04-25T04:19:55;22.90;89.50
18412;DHT22;27097;51.738;19.472;2023-04-25T04:22:23;22.90;89.80
18412;DHT22;27097;51.738;19.472;2023-04-25T04:24:50;22.90;89.30
18412;DHT22;27097;51.738;19.472;2023-04-25T04:27:18;22.90;89.70
18412;DHT22;27097;51.738;19.472;2023-04-25T04:29:46;22.90;88.90
18412;DHT22;27097;51.738;19.472;2023-04-25T04:32:14;22.90;89.30
18412;DHT22;27097;51.738;19.472;2023-04-25T04:34:40;22.90;89.50
18412;DHT22;27097;51.738;19.472;2023-04-25T04:37:07;22.90;89.30
18412;DHT22;27097;51.738;19.472;2023-04-25T04:39:35;22.90;89.30
18412;DHT22;27097;51.738;19.472;2023-04-25T04:42:02;22.90;89.40
18412;DHT22;27097;51.738;19.472;2023-04-25T04:44:30;22.90;89.40
18412;DHT22;27097;51.738;19.472;2023-04-25T04:47:01;22.90;88.90
18412;DHT22;27097;51.738;19.472;2023-04-25T04:49:29;22.90;89.20
18412;DHT22;27097;51.738;19.472;2023-04-25T04:51:56;22.90;89.00
18412;DHT22;27097;51.738;19.472;2023-04-25T04:54:22;22.90;89.40
18412;DHT22;27097;51.738;19.472;2023-04-25T04:56:51;22.90;88.60
18412;DHT22;27097;51.738;19.472;2023-04-25T04:59:18;22.90;89.50
18412;DHT22;27097;51.738;19.472;2023-04-25T05:01:47;22.90;89.40
18412;DHT22;27097;51.738;19.472;2023-04-25T05:04:15;22.90;89.20
18412;DHT22;27097;51.738;19.472;2023-04-25T05:06:42;22.90;88.80
18412;DHT22;27097;51.738;19.472;2023-04-25T05:09:09;22.90;89.40
18412;DHT22;27097;51.738;19.472;2023-04-25T05:11:36;22.90;89.40
18412;DHT22;27097;51.738;19.472;2023-04-25T05:14:03;22.90;89.30
18412;DHT22;27097;51.738;19.472;2023-04-25T05:16:30;22.90;89.40
18412;DHT22;27097;51.738;19.472;2023-04-25T05:18:57;22.90;89.00
18412;DHT22;27097;51.738;19.472;2023-04-25T05:21:25;22.90;89.60
18412;DHT22;27097;51.738;19.472;2023-04-25T05:23:53;22.90;89.00
18412;DHT22;27097;51.738;19.472;2023-04-25T05:26:20;22.90;88.50
18412;DHT22;27097;51.738;19.472;2023-04-25T05:28:47;22.90;88.80
18412;DHT22;27097;51.738;19.472;2023-04-25T05:31:36;22.90;89.70
18412;DHT22;27097;51.738;19.472;2023-04-25T05:36:33;22.90;86.00
18412;DHT22;27097;51.738;19.472;2023-04-25T05:39:00;22.90;84.80
18412;DHT22;27097;51.738;19.472;2023-04-25T05:41:43;22.90;83.60
18412;DHT22;27097;51.738;19.472;2023-04-25T05:44:10;22.90;82.70
18412;DHT22;27097;51.738;19.472;2023-04-25T05:46:37;22.90;82.30
18412;DHT22;27097;51.738;19.472;2023-04-25T05:49:04;22.90;81.20
18412;DHT22;27097;51.738;19.472;2023-04-25T05:51:31;22.90;82.20
18412;DHT22;27097;51.738;19.472;2023-04-25T05:53:59;22.90;82.90
18412;DHT22;27097;51.738;19.472;2023-04-25T05:56:26;22.80;81.80
18412;DHT22;27097;51.738;19.472;2023-04-25T05:58:53;22.90;83.20
18412;DHT22;27097;51.738;19.472;2023-04-25T06:01:21;22.90;82.90
18412;DHT22;27097;51.738;19.472;2023-04-25T06:03:48;22.90;81.10
18412;DHT22;27097;51.738;19.472;2023-04-25T06:06:16;22.90;80.40
18412;DHT22;27097;51.738;19.472;2023-04-25T06:08:43;22.90;80.10
18412;DHT22;27097;51.738;19.472;2023-04-25T06:11:12;22.80;79.90
18412;DHT22;27097;51.738;19.472;2023-04-25T06:13:48;22.80;79.20
18412;DHT22;27097;51.738;19.472;2023-04-25T06:19:15;22.80;78.80
18412;DHT22;27097;51.738;19.472;2023-04-25T06:21:43;22.80;81.10
18412;DHT22;27097;51.738;19.472;2023-04-25T06:24:12;22.80;82.70
18412;DHT22;27097;51.738;19.472;2023-04-25T06:26:41;22.80;81.50
18412;DHT22;27097;51.738;19.472;2023-04-25T06:29:10;22.80;83.10
18412;DHT22;27097;51.738;19.472;2023-04-25T06:31:40;22.80;82.30
18412;DHT22;27097;51.738;19.472;2023-04-25T06:34:16;22.80;83.70
18412;DHT22;27097;51.738;19.472;2023-04-25T06:49:56;22.90;86.00
18412;DHT22;27097;51.738;19.472;2023-04-25T06:52:37;22.90;85.40
18412;DHT22;27097;51.738;19.472;2023-04-25T06:55:04;22.90;85.30
18412;DHT22;27097;51.738;19.472;2023-04-25T06:57:36;22.90;85.10
18412;DHT22;27097;51.738;19.472;2023-04-25T07:00:13;22.90;84.40
18412;DHT22;27097;51.738;19.472;2023-04-25T07:02:49;22.90;84.30
18412;DHT22;27097;51.738;19.472;2023-04-25T07:11:49;23.00;83.10
18412;DHT22;27097;51.738;19.472;2023-04-25T07:14:50;23.00;83.10
18412;DHT22;27097;51.738;19.472;2023-04-25T07:17:52;23.00;82.60
18412;DHT22;27097;51.738;19.472;2023-04-25T07:23:57;23.00;84.40
18412;DHT22;27097;51.738;19.472;2023-04-25T07:26:24;23.00;83.50
18412;DHT22;27097;51.738;19.472;2023-04-25T07:28:56;23.00;83.10
18412;DHT22;27097;51.738;19.472;2023-04-25T07:31:26;23.00;82.30
18412;DHT22;27097;51.738;19.472;2023-04-25T07:33:54;23.00;82.20
18412;DHT22;27097;51.738;19.472;2023-04-25T07:36:23;23.00;82.00
18412;DHT22;27097;51.738;19.472;2023-04-25T07:39:07;23.00;82.10
18412;DHT22;27097;51.738;19.472;2023-04-25T07:41:35;23.00;82.00
18412;DHT22;27097;51.738;19.472;2023-04-25T07:44:15;23.00;82.20
18412;DHT22;27097;51.738;19.472;2023-04-25T07:46:42;23.00;85.60
18412;DHT22;27097;51.738;19.472;2023-04-25T07:49:10;23.00;86.50
18412;DHT22;27097;51.738;19.472;2023-04-25T07:51:37;23.00;88.00
18412;DHT22;27097;51.738;19.472;2023-04-25T07:54:04;23.00;87.90
18412;DHT22;27097;51.738;19.472;2023-04-25T07:59:18;23.00;85.90
18412;DHT22;27097;51.738;19.472;2023-04-25T08:01:45;23.00;84.70
18412;DHT22;27097;51.738;19.472;2023-04-25T08:04:14;23.00;83.00
18412;DHT22;27097;51.738;19.472;2023-04-25T08:06:50;23.00;81.60
18412;DHT22;27097;51.738;19.472;2023-04-25T08:09:18;23.00;81.40
18412;DHT22;27097;51.738;19.472;2023-04-25T08:15:06;23.10;80.30
18412;DHT22;27097;51.738;19.472;2023-04-25T08:20:29;23.10;80.20
18412;DHT22;27097;51.738;19.472;2023-04-25T08:22:56;23.10;79.40
18412;DHT22;27097;51.738;19.472;2023-04-25T08:25:38;23.10;78.90
18412;DHT22;27097;51.738;19.472;2023-04-25T08:28:23;23.10;78.50
18412;DHT22;27097;51.738;19.472;2023-04-25T08:30:52;23.10;78.10
18412;DHT22;27097;51.738;19.472;2023-04-25T08:33:19;23.20;78.00
18412;DHT22;27097;51.738;19.472;2023-04-25T08:35:46;23.20;78.30
18412;DHT22;27097;51.738;19.472;2023-04-25T08:38:33;23.10;77.80
18412;DHT22;27097;51.738;19.472;2023-04-25T08:43:29;23.20;77.20
18412;DHT22;27097;51.738;19.472;2023-04-25T08:45:59;23.20;77.40
18412;DHT22;27097;51.738;19.472;2023-04-25T08:48:27;23.20;77.20
18412;DHT22;27097;51.738;19.472;2023-04-25T08:50:56;23.20;77.50
18412;DHT22;27097;51.738;19.472;2023-04-25T08:53:26;23.20;77.10
18412;DHT22;27097;51.738;19.472;2023-04-25T08:55:54;23.20;76.90
18412;DHT22;27097;51.738;19.472;2023-04-25T08:58:22;23.20;76.80
18412;DHT22;27097;51.738;19.472;2023-04-25T09:00:50;23.20;76.70
18412;DHT22;27097;51.738;19.472;2023-04-25T09:03:19;23.20;76.40
18412;DHT22;27097;51.738;19.472;2023-04-25T09:05:46;23.30;76.50
18412;DHT22;27097;51.738;19.472;2023-04-25T09:08:20;23.30;76.40
18412;DHT22;27097;51.738;19.472;2023-04-25T09:10:47;23.20;75.80
18412;DHT22;27097;51.738;19.472;2023-04-25T09:13:30;23.20;75.50
18412;DHT22;27097;51.738;19.472;2023-04-25T09:15:57;23.20;75.30
18412;DHT22;27097;51.738;19.472;2023-04-25T09:18:27;23.20;75.00
18412;DHT22;27097;51.738;19.472;2023-04-25T09:20:55;23.20;74.50
18412;DHT22;27097;51.738;19.472;2023-04-25T09:23:22;23.20;74.40
18412;DHT22;27097;51.738;19.472;2023-04-25T09:25:51;23.20;74.40
18412;DHT22;27097;51.738;19.472;2023-04-25T09:28:23;23.20;74.40
18412;DHT22;27097;51.738;19.472;2023-04-25T09:30:54;23.20;74.00
18412;DHT22;27097;51.738;19.472;2023-04-25T09:33:28;23.20;73.70
18412;DHT22;27097;51.738;19.472;2023-04-25T09:36:02;23.20;73.70
18412;DHT22;27097;51.738;19.472;2023-04-25T09:38:30;23.20;74.10
18412;DHT22;27097;51.738;19.472;2023-04-25T09:40:57;23.20;73.10
18412;DHT22;27097;51.738;19.472;2023-04-25T09:43:25;23.20;73.00
18412;DHT22;27097;51.738;19.472;2023-04-25T09:45:54;23.20;73.20
18412;DHT22;27097;51.738;19.472;2023-04-25T09:48:25;23.20;72.80
18412;DHT22;27097;51.738;19.472;2023-04-25T09:51:08;23.20;72.70
18412;DHT22;27097;51.738;19.472;2023-04-25T09:56:26;23.20;72.30
18412;DHT22;27097;51.738;19.472;2023-04-25T09:58:58;23.20;72.70
18412;DHT22;27097;51.738;19.472;2023-04-25T10:01:26;23.20;72.70
18412;DHT22;27097;51.738;19.472;2023-04-25T10:03:56;23.20;72.40
18412;DHT22;27097;51.738;19.472;2023-04-25T10:06:25;23.20;72.40
18412;DHT22;27097;51.738;19.472;2023-04-25T10:08:52;23.20;71.90
18412;DHT22;27097;51.738;19.472;2023-04-25T10:11:22;23.20;71.80
18412;DHT22;27097;51.738;19.472;2023-04-25T10:13:51;23.20;71.30
18412;DHT22;27097;51.738;19.472;2023-04-25T10:16:22;23.20;71.50
18412;DHT22;27097;51.738;19.472;2023-04-25T10:18:58;23.20;71.40
18412;DHT22;27097;51.738;19.472;2023-04-25T10:28:23;23.20;70.70
18412;DHT22;27097;51.738;19.472;2023-04-25T10:33:17;23.20;70.90
18412;DHT22;27097;51.738;19.472;2023-04-25T10:35:45;23.20;70.90
18412;DHT22;27097;51.738;19.472;2023-04-25T10:38:14;23.20;70.90
18412;DHT22;27097;51.738;19.472;2023-04-25T10:41:02;23.20;71.00
18412;DHT22;27097;51.738;19.472;2023-04-25T10:43:40;23.20;71.00
18412;DHT22;27097;51.738;19.472;2023-04-25T10:46:17;23.20;71.20
18412;DHT22;27097;51.738;19.472;2023-04-25T10:49:00;23.20;71.30
18412;DHT22;27097;51.738;19.472;2023-04-25T10:51:58;23.20;71.00
18412;DHT22;27097;51.738;19.472;2023-04-25T10:54:41;23.10;71.10
18412;DHT22;27097;51.738;19.472;2023-04-25T10:57:36;23.10;71.20
18412;DHT22;27097;51.738;19.472;2023-04-25T11:00:23;23.10;71.40
18412;DHT22;27097;51.738;19.472;2023-04-25T11:03:04;23.10;71.10
18412;DHT22;27097;51.738;19.472;2023-04-25T11:05:33;23.10;70.90
18412;DHT22;27097;51.738;19.472;2023-04-25T11:08:02;23.10;71.00
18412;DHT22;27097;51.738;19.472;2023-04-25T11:10:31;23.10;71.10
18412;DHT22;27097;51.738;19.472;2023-04-25T11:12:58;23.10;70.90
18412;DHT22;27097;51.738;19.472;2023-04-25T11:18:16;23.10;70.90
18412;DHT22;27097;51.738;19.472;2023-04-25T11:20:43;23.10;70.60
18412;DHT22;27097;51.738;19.472;2023-04-25T11:23:10;23.10;70.70
18412;DHT22;27097;51.738;19.472;2023-04-25T11:25:38;23.10;70.80
18412;DHT22;27097;51.738;19.472;2023-04-25T11:28:05;23.10;70.60
18412;DHT22;27097;51.738;19.472;2023-04-25T11:30:35;23.10;70.60
18412;DHT22;27097;51.738;19.472;2023-04-25T11:33:17;23.10;70.50
18412;DHT22;27097;51.738;19.472;2023-04-25T11:42:45;23.10;71.10
18412;DHT22;27097;51.738;19.472;2023-04-25T11:45:13;23.10;71.00
18412;DHT22;27097;51.738;19.472;2023-04-25T11:47:40;23.10;70.90
18412;DHT22;27097;51.738;19.472;2023-04-25T11:50:08;23.10;70.80
18412;DHT22;27097;51.738;19.472;2023-04-25T11:52:39;23.10;70.90
18412;DHT22;27097;51.738;19.472;2023-04-25T11:55:08;23.10;70.90
18412;DHT22;27097;51.738;19.472;2023-04-25T11:57:35;23.10;71.20
18412;DHT22;27097;51.738;19.472;2023-04-25T12:00:12;23.10;70.90
18412;DHT22;27097;51.738;19.472;2023-04-25T12:02:42;23.10;70.90
18412;DHT22;27097;51.738;19.472;2023-04-25T12:05:09;23.10;70.60
18412;DHT22;27097;51.738;19.472;2023-04-25T12:07:37;23.10;70.80
18412;DHT22;27097;51.738;19.472;2023-04-25T12:10:05;23.10;70.50
18412;DHT22;27097;51.738;19.472;2023-04-25T12:12:33;23.10;70.60
18412;DHT22;27097;51.738;19.472;2023-04-25T12:15:10;23.10;70.90
18412;DHT22;27097;51.738;19.472;2023-04-25T12:17:38;23.00;70.70
18412;DHT22;27097;51.738;19.472;2023-04-25T12:20:11;23.00;70.60
18412;DHT22;27097;51.738;19.472;2023-04-25T12:22:40;23.10;70.70
18412;DHT22;27097;51.738;19.472;2023-04-25T12:25:10;23.00;70.60
18412;DHT22;27097;51.738;19.472;2023-04-25T12:27:37;23.00;70.90
18412;DHT22;27097;51.738;19.472;2023-04-25T12:30:06;23.00;70.70
18412;DHT22;27097;51.738;19.472;2023-04-25T12:32:35;23.00;71.20
18412;DHT22;27097;51.738;19.472;2023-04-25T12:35:03;23.00;70.20
18412;DHT22;27097;51.738;19.472;2023-04-25T12:37:30;23.00;70.30
18412;DHT22;27097;51.738;19.472;2023-04-25T12:39:57;23.00;70.20
18412;DHT22;27097;51.738;19.472;2023-04-25T12:42:24;23.00;70.40
18412;DHT22;27097;51.738;19.472;2023-04-25T12:44:50;23.00;70.60
18412;DHT22;27097;51.738;19.472;2023-04-25T12:47:17;23.00;70.40
18412;DHT22;27097;51.738;19.472;2023-04-25T12:49:45;23.00;70.80
18412;DHT22;27097;51.738;19.472;2023-04-25T12:52:15;23.00;70.50
18412;DHT22;27097;51.738;19.472;2023-04-25T12:54:42;23.00;70.60
18412;DHT22;27097;51.738;19.472;2023-04-25T12:57:09;23.00;70.60
18412;DHT22;27097;51.738;19.472;2023-04-25T12:59:36;23.00;70.30
18412;DHT22;27097;51.738;19.472;2023-04-25T13:02:03;23.00;70.00
18412;DHT22;27097;51.738;19.472;2023-04-25T13:04:30;23.00;69.60
18412;DHT22;27097;51.738;19.472;2023-04-25T13:06:58;23.00;69.60
18412;DHT22;27097;51.738;19.472;2023-04-25T13:09:25;23.00;69.80
18412;DHT22;27097;51.738;19.472;2023-04-25T13:11:52;23.00;69.80
18412;DHT22;27097;51.738;19.472;2023-04-25T13:14:19;23.00;70.70
18412;DHT22;27097;51.738;19.472;2023-04-25T13:16:45;23.00;70.50
18412;DHT22;27097;51.738;19.472;2023-04-25T13:19:12;23.00;70.90
18412;DHT22;27097;51.738;19.472;2023-04-25T13:21:39;23.00;71.10
18412;DHT22;27097;51.738;19.472;2023-04-25T13:24:07;23.00;70.60
18412;DHT22;27097;51.738;19.472;2023-04-25T13:26:34;23.00;70.50
18412;DHT22;27097;51.738;19.472;2023-04-25T13:29:01;23.00;70.10
18412;DHT22;27097;51.738;19.472;2023-04-25T13:31:29;23.00;70.00
18412;DHT22;27097;51.738;19.472;2023-04-25T13:33:56;23.00;69.70
18412;DHT22;27097;51.738;19.472;2023-04-25T13:36:23;23.00;69.40
18412;DHT22;27097;51.738;19.472;2023-04-25T13:38:51;23.10;69.40
18412;DHT22;27097;51.738;19.472;2023-04-25T13:41:19;23.10;69.70
18412;DHT22;27097;51.738;19.472;2023-04-25T13:43:49;23.10;69.50
18412;DHT22;27097;51.738;19.472;2023-04-25T13:46:16;23.10;68.60
18412;DHT22;27097;51.738;19.472;2023-04-25T13:48:43;23.10;69.40
18412;DHT22;27097;51.738;19.472;2023-04-25T13:51:14;23.10;69.90
18412;DHT22;27097;51.738;19.472;2023-04-25T13:53:51;23.10;69.40
18412;DHT22;27097;51.738;19.472;2023-04-25T13:56:20;23.10;70.20
18412;DHT22;27097;51.738;19.472;2023-04-25T13:58:47;23.00;70.60
18412;DHT22;27097;51.738;19.472;2023-04-25T14:01:27;23.00;71.40
18412;DHT22;27097;51.738;19.472;2023-04-25T14:03:56;23.00;71.30
18412;DHT22;27097;51.738;19.472;2023-04-25T14:06:23;23.00;71.40
18412;DHT22;27097;51.738;19.472;2023-04-25T14:08:51;23.00;71.60
18412;DHT22;27097;51.738;19.472;2023-04-25T14:11:27;23.00;71.10
18412;DHT22;27097;51.738;19.472;2023-04-25T14:13:59;23.00;71.20
18412;DHT22;27097;51.738;19.472;2023-04-25T14:16:26;22.90;71.20
18412;DHT22;27097;51.738;19.472;2023-04-25T14:19:05;22.90;71.10
18412;DHT22;27097;51.738;19.472;2023-04-25T14:21:35;22.90;71.90
18412;DHT22;27097;51.738;19.472;2023-04-25T14:24:05;22.90;71.10
18412;DHT22;27097;51.738;19.472;2023-04-25T14:26:36;22.90;71.40
18412;DHT22;27097;51.738;19.472;2023-04-25T14:29:04;22.90;71.00
18412;DHT22;27097;51.738;19.472;2023-04-25T14:31:35;22.90;71.00
18412;DHT22;27097;51.738;19.472;2023-04-25T14:34:02;22.90;71.10
18412;DHT22;27097;51.738;19.472;2023-04-25T14:36:29;22.90;71.20
18412;DHT22;27097;51.738;19.472;2023-04-25T14:38:57;22.90;71.20
18412;DHT22;27097;51.738;19.472;2023-04-25T14:41:39;22.90;71.90
18412;DHT22;27097;51.738;19.472;2023-04-25T14:44:09;22.90;71.10
18412;DHT22;27097;51.738;19.472;2023-04-25T14:46:36;22.90;71.60
18412;DHT22;27097;51.738;19.472;2023-04-25T14:49:04;22.90;71.70
18412;DHT22;27097;51.738;19.472;2023-04-25T14:51:31;22.80;71.50
18412;DHT22;27097;51.738;19.472;2023-04-25T14:53:58;22.80;71.50
18412;DHT22;27097;51.738;19.472;2023-04-25T14:56:28;22.80;71.60
18412;DHT22;27097;51.738;19.472;2023-04-25T14:58:57;22.80;71.40
18412;DHT22;27097;51.738;19.472;2023-04-25T15:01:31;22.80;71.20
18412;DHT22;27097;51.738;19.472;2023-04-25T15:04:07;22.80;71.40
18412;DHT22;27097;51.738;19.472;2023-04-25T15:06:50;22.80;71.40
18412;DHT22;27097;51.738;19.472;2023-04-25T15:09:31;22.80;71.40
18412;DHT22;27097;51.738;19.472;2023-04-25T15:11:58;22.80;71.40
18412;DHT22;27097;51.738;19.472;2023-04-25T15:14:27;22.80;71.40
18412;DHT22;27097;51.738;19.472;2023-04-25T15:17:03;22.80;71.40
18412;DHT22;27097;51.738;19.472;2023-04-25T15:19:42;22.80;71.30
18412;DHT22;27097;51.738;19.472;2023-04-25T15:22:09;22.70;71.30
18412;DHT22;27097;51.738;19.472;2023-04-25T15:24:44;22.70;71.00
18412;DHT22;27097;51.738;19.472;2023-04-25T15:27:17;22.70;71.20
18412;DHT22;27097;51.738;19.472;2023-04-25T15:29:48;22.70;71.10
18412;DHT22;27097;51.738;19.472;2023-04-25T15:32:20;22.70;71.00
18412;DHT22;27097;51.738;19.472;2023-04-25T15:35:07;22.70;70.80
18412;DHT22;27097;51.738;19.472;2023-04-25T15:37:45;22.70;70.80
18412;DHT22;27097;51.738;19.472;2023-04-25T15:40:14;22.70;71.00
18412;DHT22;27097;51.738;19.472;2023-04-25T15:42:46;22.70;71.00
18412;DHT22;27097;51.738;19.472;2023-04-25T15:48:23;22.70;70.80
18412;DHT22;27097;51.738;19.472;2023-04-25T15:51:15;22.70;70.80
18412;DHT22;27097;51.738;19.472;2023-04-25T15:54:54;22.70;70.90
18412;DHT22;27097;51.738;19.472;2023-04-25T15:59:40;22.70;70.70
18412;DHT22;27097;51.738;19.472;2023-04-25T16:02:19;22.70;70.90
18412;DHT22;27097;51.738;19.472;2023-04-25T16:07:37;22.70;70.80
18412;DHT22;27097;51.738;19.472;2023-04-25T16:10:25;22.70;71.00
18412;DHT22;27097;51.738;19.472;2023-04-25T16:12:52;22.70;71.00
18412;DHT22;27097;51.738;19.472;2023-04-25T16:33:13;22.60;70.80
18412;DHT22;27097;51.738;19.472;2023-04-25T16:35:42;22.60;70.50
18412;DHT22;27097;51.738;19.472;2023-04-25T16:38:09;22.60;70.40
18412;DHT22;27097;51.738;19.472;2023-04-25T16:40:46;22.60;71.00
18412;DHT22;27097;51.738;19.472;2023-04-25T16:43:17;22.60;70.90
18412;DHT22;27097;51.738;19.472;2023-04-25T16:49:20;22.60;70.90
18412;DHT22;27097;51.738;19.472;2023-04-25T16:51:47;22.60;70.70
18412;DHT22;27097;51.738;19.472;2023-04-25T16:54:14;22.60;70.40
18412;DHT22;27097;51.738;19.472;2023-04-25T16:56:43;22.60;70.80
18412;DHT22;27097;51.738;19.472;2023-04-25T16:59:13;22.60;71.10
18412;DHT22;27097;51.738;19.472;2023-04-25T17:01:40;22.60;71.00
18412;DHT22;27097;51.738;19.472;2023-04-25T17:07:01;22.50;70.90